Bolan, Iowa
Current Conditions -  °F | °C
As of 6:53 AM on Friday 24 Oct 2014 (Local Time) from KMCW Reporting Station
Haze Haze  
Wind Chill: 42°   Ceiling: Unl
Heat Index: 45°   Visibility: 4mi
Dew Point: 44°   Wind: 6mph
Humidity: 97%   Direction: 140°SE
Pressure: 29.95"   Gusts: NA
Location:  43.3847°N, 93.1428°W
Report Text: KMCW 241153Z AUTO 14005KT 4SM BR CLR 07/07 A2995 RMK AO2 SLP143 70001 T00720067 10072 20044 57015
Loading
Personal Weather Stations






























Interactive Weather Map
Tropical Storm Tracking
New forecast layout! Learn more

10-Day Weather Forecast

Advertisements
Track Severe Weather on mobile